sensor_id;sensor_type;location;lat;lon;timestamp;temperature;humidity
72762;SHT30;60886;55.034;73.150;2023-03-01T00:02:22;0.84;80.99
72762;SHT30;60886;55.034;73.150;2023-03-01T00:05:23;0.87;80.92
72762;SHT30;60886;55.034;73.150;2023-03-01T00:08:25;0.92;80.94
72762;SHT30;60886;55.034;73.150;2023-03-01T00:11:33;0.89;80.95
72762;SHT30;60886;55.034;73.150;2023-03-01T00:14:35;0.93;80.95
72762;SHT30;60886;55.034;73.150;2023-03-01T00:17:37;0.94;81.05
72762;SHT30;60886;55.034;73.150;2023-03-01T00:20:38;0.97;81.07
72762;SHT30;60886;55.034;73.150;2023-03-01T00:23:40;0.99;81.04
72762;SHT30;60886;55.034;73.150;2023-03-01T00:26:46;0.96;81.12
72762;SHT30;60886;55.034;73.150;2023-03-01T00:29:57;0.96;81.30
72762;SHT30;60886;55.034;73.150;2023-03-01T00:33:00;0.97;81.52
72762;SHT30;60886;55.034;73.150;2023-03-01T00:36:06;1.04;81.11
72762;SHT30;60886;55.034;73.150;2023-03-01T00:39:12;1.05;80.95
72762;SHT30;60886;55.034;73.150;2023-03-01T00:42:24;1.00;80.88
72762;SHT30;60886;55.034;73.150;2023-03-01T00:45:26;0.99;81.04
72762;SHT30;60886;55.034;73.150;2023-03-01T00:48:38;1.03;81.08
72762;SHT30;60886;55.034;73.150;2023-03-01T00:51:45;1.05;81.10
72762;SHT30;60886;55.034;73.150;2023-03-01T00:54:46;1.05;81.21
72762;SHT30;60886;55.034;73.150;2023-03-01T00:57:48;1.10;80.85
72762;SHT30;60886;55.034;73.150;2023-03-01T01:01:00;1.14;81.10
72762;SHT30;60886;55.034;73.150;2023-03-01T01:04:13;1.14;80.72
72762;SHT30;60886;55.034;73.150;2023-03-01T01:07:15;1.14;81.04
72762;SHT30;60886;55.034;73.150;2023-03-01T01:10:16;1.08;80.68
72762;SHT30;60886;55.034;73.150;2023-03-01T01:13:31;1.14;80.95
72762;SHT30;60886;55.034;73.150;2023-03-01T01:16:37;1.19;80.90
72762;SHT30;60886;55.034;73.150;2023-03-01T01:19:39;1.19;80.65
72762;SHT30;60886;55.034;73.150;2023-03-01T01:22:40;1.16;80.60
72762;SHT30;60886;55.034;73.150;2023-03-01T01:25:46;1.19;80.45
72762;SHT30;60886;55.034;73.150;2023-03-01T01:28:54;1.24;80.56
72762;SHT30;60886;55.034;73.150;2023-03-01T01:31:56;1.19;80.05
72762;SHT30;60886;55.034;73.150;2023-03-01T01:35:03;1.17;80.33
72762;SHT30;60886;55.034;73.150;2023-03-01T01:38:05;1.14;80.27
72762;SHT30;60886;55.034;73.150;2023-03-01T01:41:06;1.11;79.99
72762;SHT30;60886;55.034;73.150;2023-03-01T01:44:21;1.14;80.63
72762;SHT30;60886;55.034;73.150;2023-03-01T01:47:32;1.14;80.07
72762;SHT30;60886;55.034;73.150;2023-03-01T01:50:35;1.20;80.14
72762;SHT30;60886;55.034;73.150;2023-03-01T01:53:40;1.17;79.67
72762;SHT30;60886;55.034;73.150;2023-03-01T01:56:56;1.11;80.09
72762;SHT30;60886;55.034;73.150;2023-03-01T02:00:03;1.16;80.01
72762;SHT30;60886;55.034;73.150;2023-03-01T02:03:18;1.24;80.13
72762;SHT30;60886;55.034;73.150;2023-03-01T02:06:29;1.27;79.33
72762;SHT30;60886;55.034;73.150;2023-03-01T02:09:45;1.27;78.95
72762;SHT30;60886;55.034;73.150;2023-03-01T02:12:57;1.26;78.95
72762;SHT30;60886;55.034;73.150;2023-03-01T02:16:25;1.21;79.29
72762;SHT30;60886;55.034;73.150;2023-03-01T02:22:45;1.26;79.28
72762;SHT30;60886;55.034;73.150;2023-03-01T02:25:55;1.28;79.16
72762;SHT30;60886;55.034;73.150;2023-03-01T02:29:03;1.30;79.13
72762;SHT30;60886;55.034;73.150;2023-03-01T02:32:11;1.30;79.28
72762;SHT30;60886;55.034;73.150;2023-03-01T02:35:23;1.38;79.12
72762;SHT30;60886;55.034;73.150;2023-03-01T02:38:24;1.43;79.11
72762;SHT30;60886;55.034;73.150;2023-03-01T02:41:28;1.45;79.30
72762;SHT30;60886;55.034;73.150;2023-03-01T02:44:37;1.51;79.04
72762;SHT30;60886;55.034;73.150;2023-03-01T02:47:43;1.52;79.51
72762;SHT30;60886;55.034;73.150;2023-03-01T02:51:11;1.61;79.29
72762;SHT30;60886;55.034;73.150;2023-03-01T02:57:50;1.64;78.95
72762;SHT30;60886;55.034;73.150;2023-03-01T03:00:57;1.74;78.65
72762;SHT30;60886;55.034;73.150;2023-03-01T03:04:00;1.75;78.25
72762;SHT30;60886;55.034;73.150;2023-03-01T03:07:09;1.83;78.47
72762;SHT30;60886;55.034;73.150;2023-03-01T03:10:23;2.05;77.79
72762;SHT30;60886;55.034;73.150;2023-03-01T03:13:34;2.09;77.39
72762;SHT30;60886;55.034;73.150;2023-03-01T03:16:35;2.19;77.12
72762;SHT30;60886;55.034;73.150;2023-03-01T03:19:41;2.22;77.61
72762;SHT30;60886;55.034;73.150;2023-03-01T03:22:48;2.25;77.49
72762;SHT30;60886;55.034;73.150;2023-03-01T03:25:59;2.30;77.42
72762;SHT30;60886;55.034;73.150;2023-03-01T03:29:01;2.44;77.62
72762;SHT30;60886;55.034;73.150;2023-03-01T03:32:12;2.47;77.83
72762;SHT30;60886;55.034;73.150;2023-03-01T03:35:13;2.64;77.51
72762;SHT30;60886;55.034;73.150;2023-03-01T03:38:17;2.54;77.65
72762;SHT30;60886;55.034;73.150;2023-03-01T03:41:19;2.49;78.10
72762;SHT30;60886;55.034;73.150;2023-03-01T03:44:21;2.49;78.39
72762;SHT30;60886;55.034;73.150;2023-03-01T03:47:32;2.50;78.54
72762;SHT30;60886;55.034;73.150;2023-03-01T03:50:49;2.47;78.82
72762;SHT30;60886;55.034;73.150;2023-03-01T03:54:00;2.44;79.70
72762;SHT30;60886;55.034;73.150;2023-03-01T03:57:09;2.36;80.34
72762;SHT30;60886;55.034;73.150;2023-03-01T04:00:21;2.39;80.61
72762;SHT30;60886;55.034;73.150;2023-03-01T04:03:31;2.40;80.73
72762;SHT30;60886;55.034;73.150;2023-03-01T04:06:33;2.36;81.21
72762;SHT30;60886;55.034;73.150;2023-03-01T04:09:34;2.36;81.30
72762;SHT30;60886;55.034;73.150;2023-03-01T04:12:36;2.40;81.54
72762;SHT30;60886;55.034;73.150;2023-03-01T04:15:37;2.36;81.54
72762;SHT30;60886;55.034;73.150;2023-03-01T04:18:38;2.37;81.69
72762;SHT30;60886;55.034;73.150;2023-03-01T04:21:40;2.36;81.60
72762;SHT30;60886;55.034;73.150;2023-03-01T04:24:41;2.46;81.54
72762;SHT30;60886;55.034;73.150;2023-03-01T04:27:47;2.39;82.65
72762;SHT30;60886;55.034;73.150;2023-03-01T04:30:55;2.41;82.62
72762;SHT30;60886;55.034;73.150;2023-03-01T04:33:57;2.56;82.72
72762;SHT30;60886;55.034;73.150;2023-03-01T04:36:58;2.71;82.38
72762;SHT30;60886;55.034;73.150;2023-03-01T04:40:10;2.79;81.48
72762;SHT30;60886;55.034;73.150;2023-03-01T04:43:17;2.93;81.12
72762;SHT30;60886;55.034;73.150;2023-03-01T04:46:20;3.07;80.94
72762;SHT30;60886;55.034;73.150;2023-03-01T04:49:31;2.95;79.64
72762;SHT30;60886;55.034;73.150;2023-03-01T04:52:44;2.98;80.28
72762;SHT30;60886;55.034;73.150;2023-03-01T04:55:45;3.01;79.44
72762;SHT30;60886;55.034;73.150;2023-03-01T04:58:46;2.93;80.00
72762;SHT30;60886;55.034;73.150;2023-03-01T05:01:49;3.05;79.59
72762;SHT30;60886;55.034;73.150;2023-03-01T05:04:50;3.22;80.19
72762;SHT30;60886;55.034;73.150;2023-03-01T05:08:00;3.19;78.13
72762;SHT30;60886;55.034;73.150;2023-03-01T05:11:02;3.12;78.94
72762;SHT30;60886;55.034;73.150;2023-03-01T05:14:07;3.15;78.97
72762;SHT30;60886;55.034;73.150;2023-03-01T05:17:09;3.18;79.41
72762;SHT30;60886;55.034;73.150;2023-03-01T05:20:21;3.07;79.05
72762;SHT30;60886;55.034;73.150;2023-03-01T05:23:25;2.98;78.87
72762;SHT30;60886;55.034;73.150;2023-03-01T05:26:27;3.07;80.52
72762;SHT30;60886;55.034;73.150;2023-03-01T05:29:31;3.25;78.63
72762;SHT30;60886;55.034;73.150;2023-03-01T05:32:48;3.18;79.15
72762;SHT30;60886;55.034;73.150;2023-03-01T05:35:51;3.24;79.43
72762;SHT30;60886;55.034;73.150;2023-03-01T05:38:59;3.16;79.96
72762;SHT30;60886;55.034;73.150;2023-03-01T05:42:11;3.32;79.18
72762;SHT30;60886;55.034;73.150;2023-03-01T05:45:20;3.38;78.44
72762;SHT30;60886;55.034;73.150;2023-03-01T05:48:21;3.51;79.65
72762;SHT30;60886;55.034;73.150;2023-03-01T05:51:28;3.52;78.39
72762;SHT30;60886;55.034;73.150;2023-03-01T05:54:40;3.48;77.88
72762;SHT30;60886;55.034;73.150;2023-03-01T05:57:47;3.36;78.66
72762;SHT30;60886;55.034;73.150;2023-03-01T06:00:58;3.46;79.18
72762;SHT30;60886;55.034;73.150;2023-03-01T06:03:59;3.38;78.12
72762;SHT30;60886;55.034;73.150;2023-03-01T06:07:09;3.56;78.20
72762;SHT30;60886;55.034;73.150;2023-03-01T06:10:12;3.69;77.25
72762;SHT30;60886;55.034;73.150;2023-03-01T06:13:24;3.85;76.28
72762;SHT30;60886;55.034;73.150;2023-03-01T06:16:25;3.77;76.50
72762;SHT30;60886;55.034;73.150;2023-03-01T06:19:27;3.63;76.08
72762;SHT30;60886;55.034;73.150;2023-03-01T06:22:35;3.38;77.41
72762;SHT30;60886;55.034;73.150;2023-03-01T06:25:42;3.43;76.98
72762;SHT30;60886;55.034;73.150;2023-03-01T06:28:43;3.29;77.43
72762;SHT30;60886;55.034;73.150;2023-03-01T06:31:46;3.34;77.40
72762;SHT30;60886;55.034;73.150;2023-03-01T06:34:56;3.46;77.44
72762;SHT30;60886;55.034;73.150;2023-03-01T06:38:01;3.45;77.03
72762;SHT30;60886;55.034;73.150;2023-03-01T06:41:02;3.54;76.76
72762;SHT30;60886;55.034;73.150;2023-03-01T06:44:04;3.52;77.37
72762;SHT30;60886;55.034;73.150;2023-03-01T06:47:09;3.62;76.65
72762;SHT30;60886;55.034;73.150;2023-03-01T06:50:11;3.75;76.74
72762;SHT30;60886;55.034;73.150;2023-03-01T06:53:12;4.04;76.46
72762;SHT30;60886;55.034;73.150;2023-03-01T06:56:14;3.96;76.07
72762;SHT30;60886;55.034;73.150;2023-03-01T06:59:16;4.00;76.08
72762;SHT30;60886;55.034;73.150;2023-03-01T07:02:17;3.85;76.09
72762;SHT30;60886;55.034;73.150;2023-03-01T07:05:19;3.89;76.83
72762;SHT30;60886;55.034;73.150;2023-03-01T07:08:26;3.89;76.91
72762;SHT30;60886;55.034;73.150;2023-03-01T07:11:27;3.80;76.60
72762;SHT30;60886;55.034;73.150;2023-03-01T07:14:39;3.86;76.69
72762;SHT30;60886;55.034;73.150;2023-03-01T07:17:40;3.93;76.29
72762;SHT30;60886;55.034;73.150;2023-03-01T07:20:42;3.87;76.14
72762;SHT30;60886;55.034;73.150;2023-03-01T07:23:43;4.01;76.11
72762;SHT30;60886;55.034;73.150;2023-03-01T07:26:54;3.96;76.06
72762;SHT30;60886;55.034;73.150;2023-03-01T07:29:55;4.17;75.49
72762;SHT30;60886;55.034;73.150;2023-03-01T07:33:01;4.18;74.66
72762;SHT30;60886;55.034;73.150;2023-03-01T07:36:03;4.22;74.62
72762;SHT30;60886;55.034;73.150;2023-03-01T07:39:05;4.25;74.52
72762;SHT30;60886;55.034;73.150;2023-03-01T07:42:09;4.24;73.96
72762;SHT30;60886;55.034;73.150;2023-03-01T07:45:12;4.13;74.41
72762;SHT30;60886;55.034;73.150;2023-03-01T07:48:22;4.27;73.99
72762;SHT30;60886;55.034;73.150;2023-03-01T07:51:28;4.25;73.58
72762;SHT30;60886;55.034;73.150;2023-03-01T07:54:30;4.16;73.90
72762;SHT30;60886;55.034;73.150;2023-03-01T07:57:31;4.13;73.92
72762;SHT30;60886;55.034;73.150;2023-03-01T08:00:32;4.07;74.12
72762;SHT30;60886;55.034;73.150;2023-03-01T08:03:35;4.13;74.22
72762;SHT30;60886;55.034;73.150;2023-03-01T08:06:37;4.13;74.58
72762;SHT30;60886;55.034;73.150;2023-03-01T08:09:44;4.30;74.57
72762;SHT30;60886;55.034;73.150;2023-03-01T08:12:55;4.27;74.52
72762;SHT30;60886;55.034;73.150;2023-03-01T08:16:02;4.18;74.72
72762;SHT30;60886;55.034;73.150;2023-03-01T08:19:08;4.03;75.89
72762;SHT30;60886;55.034;73.150;2023-03-01T08:22:10;4.13;75.39
72762;SHT30;60886;55.034;73.150;2023-03-01T08:25:22;4.11;75.70
72762;SHT30;60886;55.034;73.150;2023-03-01T08:28:23;4.14;75.87
72762;SHT30;60886;55.034;73.150;2023-03-01T08:31:32;4.10;76.13
72762;SHT30;60886;55.034;73.150;2023-03-01T08:34:34;4.03;75.72
72762;SHT30;60886;55.034;73.150;2023-03-01T08:37:36;3.86;76.60
72762;SHT30;60886;55.034;73.150;2023-03-01T08:40:38;3.90;76.57
72762;SHT30;60886;55.034;73.150;2023-03-01T08:43:39;3.82;76.87
72762;SHT30;60886;55.034;73.150;2023-03-01T08:46:41;3.96;76.89
72762;SHT30;60886;55.034;73.150;2023-03-01T08:49:43;3.93;76.45
72762;SHT30;60886;55.034;73.150;2023-03-01T08:52:54;3.94;76.28
72762;SHT30;60886;55.034;73.150;2023-03-01T08:56:00;4.01;76.52
72762;SHT30;60886;55.034;73.150;2023-03-01T08:59:03;4.07;76.79
72762;SHT30;60886;55.034;73.150;2023-03-01T09:02:17;4.27;75.60
72762;SHT30;60886;55.034;73.150;2023-03-01T09:05:31;4.25;75.96
72762;SHT30;60886;55.034;73.150;2023-03-01T09:08:41;4.30;75.48
72762;SHT30;60886;55.034;73.150;2023-03-01T09:11:44;4.44;75.69
72762;SHT30;60886;55.034;73.150;2023-03-01T09:14:47;4.55;75.49
72762;SHT30;60886;55.034;73.150;2023-03-01T09:17:58;4.50;75.45
72762;SHT30;60886;55.034;73.150;2023-03-01T09:21:15;4.36;75.48
72762;SHT30;60886;55.034;73.150;2023-03-01T09:24:16;4.33;75.90
72762;SHT30;60886;55.034;73.150;2023-03-01T09:27:18;4.34;74.92
72762;SHT30;60886;55.034;73.150;2023-03-01T09:30:31;4.20;75.70
72762;SHT30;60886;55.034;73.150;2023-03-01T09:33:33;4.18;76.66
72762;SHT30;60886;55.034;73.150;2023-03-01T09:36:35;4.21;76.37
72762;SHT30;60886;55.034;73.150;2023-03-01T09:39:36;4.20;76.10
72762;SHT30;60886;55.034;73.150;2023-03-01T09:42:54;4.24;75.68
72762;SHT30;60886;55.034;73.150;2023-03-01T09:46:00;4.29;75.75
72762;SHT30;60886;55.034;73.150;2023-03-01T09:49:26;4.33;75.70
72762;SHT30;60886;55.034;73.150;2023-03-01T09:52:38;4.45;74.88
72762;SHT30;60886;55.034;73.150;2023-03-01T09:55:48;4.31;74.97
72762;SHT30;60886;55.034;73.150;2023-03-01T10:08:56;3.93;75.97
72762;SHT30;60886;55.034;73.150;2023-03-01T10:12:12;3.99;76.27
72762;SHT30;60886;55.034;73.150;2023-03-01T10:15:43;3.97;75.88
72762;SHT30;60886;55.034;73.150;2023-03-01T10:18:47;3.89;76.61
72762;SHT30;60886;55.034;73.150;2023-03-01T10:22:20;3.82;76.39
72762;SHT30;60886;55.034;73.150;2023-03-01T10:29:04;3.77;76.60
72762;SHT30;60886;55.034;73.150;2023-03-01T10:32:17;3.80;76.30
72762;SHT30;60886;55.034;73.150;2023-03-01T10:35:28;3.60;76.32
72762;SHT30;60886;55.034;73.150;2023-03-01T10:38:31;3.18;78.08
72762;SHT30;60886;55.034;73.150;2023-03-01T10:42:01;3.36;78.82
72762;SHT30;60886;55.034;73.150;2023-03-01T10:45:23;3.36;78.07
72762;SHT30;60886;55.034;73.150;2023-03-01T10:48:28;3.26;78.56
72762;SHT30;60886;55.034;73.150;2023-03-01T10:51:29;3.35;77.98
72762;SHT30;60886;55.034;73.150;2023-03-01T10:54:32;3.34;78.00
72762;SHT30;60886;55.034;73.150;2023-03-01T10:57:37;3.22;78.43
72762;SHT30;60886;55.034;73.150;2023-03-01T11:00:48;3.19;78.83
72762;SHT30;60886;55.034;73.150;2023-03-01T11:07:09;3.14;78.86
72762;SHT30;60886;55.034;73.150;2023-03-01T11:10:18;3.05;79.37
72762;SHT30;60886;55.034;73.150;2023-03-01T11:13:24;3.00;79.50
72762;SHT30;60886;55.034;73.150;2023-03-01T11:16:32;3.09;79.71
72762;SHT30;60886;55.034;73.150;2023-03-01T11:19:34;3.22;79.03
72762;SHT30;60886;55.034;73.150;2023-03-01T11:22:35;3.18;78.98
72762;SHT30;60886;55.034;73.150;2023-03-01T11:25:42;3.03;79.38
72762;SHT30;60886;55.034;73.150;2023-03-01T11:28:51;2.68;80.39
72762;SHT30;60886;55.034;73.150;2023-03-01T11:31:59;2.68;81.51
72762;SHT30;60886;55.034;73.150;2023-03-01T11:35:17;2.71;80.87
72762;SHT30;60886;55.034;73.150;2023-03-01T11:38:24;2.71;80.68
72762;SHT30;60886;55.034;73.150;2023-03-01T11:41:30;2.68;80.65
72762;SHT30;60886;55.034;73.150;2023-03-01T11:44:34;2.57;81.30
72762;SHT30;60886;55.034;73.150;2023-03-01T11:51:37;2.65;81.15
72762;SHT30;60886;55.034;73.150;2023-03-01T11:55:12;2.60;81.09
72762;SHT30;60886;55.034;73.150;2023-03-01T11:58:41;2.68;81.52
72762;SHT30;60886;55.034;73.150;2023-03-01T12:09:15;2.68;81.12
72762;SHT30;60886;55.034;73.150;2023-03-01T12:12:26;2.70;81.22
72762;SHT30;60886;55.034;73.150;2023-03-01T12:19:33;2.91;80.45
72762;SHT30;60886;55.034;73.150;2023-03-01T12:26:33;2.67;81.04
72762;SHT30;60886;55.034;73.150;2023-03-01T12:36:46;2.65;81.36
72762;SHT30;60886;55.034;73.150;2023-03-01T12:50:44;2.60;81.65
72762;SHT30;60886;55.034;73.150;2023-03-01T12:53:50;2.61;82.02
72762;SHT30;60886;55.034;73.150;2023-03-01T12:56:53;2.60;81.93
72762;SHT30;60886;55.034;73.150;2023-03-01T13:00:02;2.68;82.12
72762;SHT30;60886;55.034;73.150;2023-03-01T13:13:02;2.81;81.67
72762;SHT30;60886;55.034;73.150;2023-03-01T13:19:34;2.77;81.45
72762;SHT30;60886;55.034;73.150;2023-03-01T13:22:47;2.73;81.64
72762;SHT30;60886;55.034;73.150;2023-03-01T13:29:25;2.73;81.33
72762;SHT30;60886;55.034;73.150;2023-03-01T13:32:37;2.71;81.80
72762;SHT30;60886;55.034;73.150;2023-03-01T13:35:51;2.67;81.55
72762;SHT30;60886;55.034;73.150;2023-03-01T13:41:55;2.67;81.98
72762;SHT30;60886;55.034;73.150;2023-03-01T13:44:59;2.73;81.61
72762;SHT30;60886;55.034;73.150;2023-03-01T13:48:37;2.74;81.28
72762;SHT30;60886;55.034;73.150;2023-03-01T13:51:49;2.79;81.24
72762;SHT30;60886;55.034;73.150;2023-03-01T13:54:52;2.73;81.39
72762;SHT30;60886;55.034;73.150;2023-03-01T13:58:01;2.67;81.31
72762;SHT30;60886;55.034;73.150;2023-03-01T14:01:18;2.71;81.36
72762;SHT30;60886;55.034;73.150;2023-03-01T14:04:32;2.70;81.40
72762;SHT30;60886;55.034;73.150;2023-03-01T14:07:37;2.77;81.41
72762;SHT30;60886;55.034;73.150;2023-03-01T14:10:56;2.84;80.81
72762;SHT30;60886;55.034;73.150;2023-03-01T14:20:45;2.74;81.05
72762;SHT30;60886;55.034;73.150;2023-03-01T14:23:52;2.67;81.18
72762;SHT30;60886;55.034;73.150;2023-03-01T14:27:01;2.67;81.31
72762;SHT30;60886;55.034;73.150;2023-03-01T14:30:15;2.79;81.26
72762;SHT30;60886;55.034;73.150;2023-03-01T14:36:29;2.77;80.61
72762;SHT30;60886;55.034;73.150;2023-03-01T14:39:32;2.81;80.51
72762;SHT30;60886;55.034;73.150;2023-03-01T14:42:35;2.84;80.27
72762;SHT30;60886;55.034;73.150;2023-03-01T14:45:49;2.85;79.89
72762;SHT30;60886;55.034;73.150;2023-03-01T14:48:54;2.90;79.98
72762;SHT30;60886;55.034;73.150;2023-03-01T14:52:05;2.93;79.55
72762;SHT30;60886;55.034;73.150;2023-03-01T14:55:25;2.91;79.19
72762;SHT30;60886;55.034;73.150;2023-03-01T14:58:28;2.97;79.69
72762;SHT30;60886;55.034;73.150;2023-03-01T15:01:30;2.90;79.16
72762;SHT30;60886;55.034;73.150;2023-03-01T15:04:32;3.00;79.24
72762;SHT30;60886;55.034;73.150;2023-03-01T15:07:42;2.97;78.73
72762;SHT30;60886;55.034;73.150;2023-03-01T15:10:58;2.97;78.97
72762;SHT30;60886;55.034;73.150;2023-03-01T15:14:39;2.97;79.31
72762;SHT30;60886;55.034;73.150;2023-03-01T15:17:52;3.01;78.69
72762;SHT30;60886;55.034;73.150;2023-03-01T15:21:09;3.00;78.74
72762;SHT30;60886;55.034;73.150;2023-03-01T15:24:24;2.98;78.99
72762;SHT30;60886;55.034;73.150;2023-03-01T15:27:31;3.11;78.66
72762;SHT30;60886;55.034;73.150;2023-03-01T15:30:34;3.07;78.44
72762;SHT30;60886;55.034;73.150;2023-03-01T15:33:38;3.09;78.36
72762;SHT30;60886;55.034;73.150;2023-03-01T15:36:47;3.00;78.51
72762;SHT30;60886;55.034;73.150;2023-03-01T15:40:01;2.90;78.83
72762;SHT30;60886;55.034;73.150;2023-03-01T15:43:14;2.90;79.15
72762;SHT30;60886;55.034;73.150;2023-03-01T15:46:34;2.98;78.50
72762;SHT30;60886;55.034;73.150;2023-03-01T15:49:51;3.00;78.80
72762;SHT30;60886;55.034;73.150;2023-03-01T15:53:00;3.05;78.39
72762;SHT30;60886;55.034;73.150;2023-03-01T15:56:02;3.00;78.08
72762;SHT30;60886;55.034;73.150;2023-03-01T15:59:04;2.90;78.95
72762;SHT30;60886;55.034;73.150;2023-03-01T16:02:18;2.95;78.61
72762;SHT30;60886;55.034;73.150;2023-03-01T16:05:35;2.87;78.53
72762;SHT30;60886;55.034;73.150;2023-03-01T16:08:40;2.71;79.60
72762;SHT30;60886;55.034;73.150;2023-03-01T16:11:42;2.80;79.66
72762;SHT30;60886;55.034;73.150;2023-03-01T16:14:44;2.83;79.17
72762;SHT30;60886;55.034;73.150;2023-03-01T16:17:53;2.76;79.27
72762;SHT30;60886;55.034;73.150;2023-03-01T16:20:58;2.74;79.42
72762;SHT30;60886;55.034;73.150;2023-03-01T16:24:00;2.67;79.64
72762;SHT30;60886;55.034;73.150;2023-03-01T16:27:09;2.68;79.65
72762;SHT30;60886;55.034;73.150;2023-03-01T16:30:19;2.71;79.54
72762;SHT30;60886;55.034;73.150;2023-03-01T16:33:21;2.74;79.54
72762;SHT30;60886;55.034;73.150;2023-03-01T16:36:24;2.74;79.41
72762;SHT30;60886;55.034;73.150;2023-03-01T16:39:38;2.68;79.51
72762;SHT30;60886;55.034;73.150;2023-03-01T16:42:40;2.64;79.66
72762;SHT30;60886;55.034;73.150;2023-03-01T16:45:42;2.57;80.15
72762;SHT30;60886;55.034;73.150;2023-03-01T16:48:48;2.54;80.30
72762;SHT30;60886;55.034;73.150;2023-03-01T16:52:09;2.63;80.09
72762;SHT30;60886;55.034;73.150;2023-03-01T16:55:11;2.57;80.25
72762;SHT30;60886;55.034;73.150;2023-03-01T16:58:13;2.54;80.40
72762;SHT30;60886;55.034;73.150;2023-03-01T17:01:19;2.53;80.41
72762;SHT30;60886;55.034;73.150;2023-03-01T17:04:24;2.56;80.30
72762;SHT30;60886;55.034;73.150;2023-03-01T17:07:36;2.64;80.16
72762;SHT30;60886;55.034;73.150;2023-03-01T17:10:44;2.61;80.04
72762;SHT30;60886;55.034;73.150;2023-03-01T17:13:46;2.58;80.50
72762;SHT30;60886;55.034;73.150;2023-03-01T17:16:49;2.61;80.20
72762;SHT30;60886;55.034;73.150;2023-03-01T17:19:51;2.65;79.98
72762;SHT30;60886;55.034;73.150;2023-03-01T17:22:58;2.61;79.90
72762;SHT30;60886;55.034;73.150;2023-03-01T17:26:01;2.67;79.90
72762;SHT30;60886;55.034;73.150;2023-03-01T17:29:03;2.61;80.03
72762;SHT30;60886;55.034;73.150;2023-03-01T17:32:09;2.68;79.99
72762;SHT30;60886;55.034;73.150;2023-03-01T17:35:12;2.79;79.08
72762;SHT30;60886;55.034;73.150;2023-03-01T17:38:14;2.73;79.02
72762;SHT30;60886;55.034;73.150;2023-03-01T17:41:21;2.65;79.33
72762;SHT30;60886;55.034;73.150;2023-03-01T17:44:25;2.70;79.35
72762;SHT30;60886;55.034;73.150;2023-03-01T17:47:27;2.65;78.98
72762;SHT30;60886;55.034;73.150;2023-03-01T17:50:28;2.65;79.25
72762;SHT30;60886;55.034;73.150;2023-03-01T17:53:32;2.63;79.34
72762;SHT30;60886;55.034;73.150;2023-03-01T17:56:34;2.64;79.03
72762;SHT30;60886;55.034;73.150;2023-03-01T17:59:39;2.64;78.99
72762;SHT30;60886;55.034;73.150;2023-03-01T18:02:41;2.65;78.92
72762;SHT30;60886;55.034;73.150;2023-03-01T18:05:43;2.71;78.74
72762;SHT30;60886;55.034;73.150;2023-03-01T18:08:45;2.64;78.62
72762;SHT30;60886;55.034;73.150;2023-03-01T18:11:58;2.57;78.88
72762;SHT30;60886;55.034;73.150;2023-03-01T18:15:00;2.56;78.54
72762;SHT30;60886;55.034;73.150;2023-03-01T18:18:02;2.63;78.33
72762;SHT30;60886;55.034;73.150;2023-03-01T18:21:10;2.67;78.29
72762;SHT30;60886;55.034;73.150;2023-03-01T18:24:16;2.70;78.42
72762;SHT30;60886;55.034;73.150;2023-03-01T18:27:18;2.67;78.16
72762;SHT30;60886;55.034;73.150;2023-03-01T18:30:19;2.64;78.50
72762;SHT30;60886;55.034;73.150;2023-03-01T18:33:26;2.63;78.55
72762;SHT30;60886;55.034;73.150;2023-03-01T18:36:30;2.57;78.68
72762;SHT30;60886;55.034;73.150;2023-03-01T18:39:37;2.50;78.77
72762;SHT30;60886;55.034;73.150;2023-03-01T18:42:43;2.60;78.80
72762;SHT30;60886;55.034;73.150;2023-03-01T18:45:45;2.53;78.42
72762;SHT30;60886;55.034;73.150;2023-03-01T18:48:48;2.54;78.53
72762;SHT30;60886;55.034;73.150;2023-03-01T18:52:08;2.44;79.00
72762;SHT30;60886;55.034;73.150;2023-03-01T18:55:15;2.50;78.78
72762;SHT30;60886;55.034;73.150;2023-03-01T18:58:16;2.49;78.84
72762;SHT30;60886;55.034;73.150;2023-03-01T19:01:20;2.47;79.03
72762;SHT30;60886;55.034;73.150;2023-03-01T19:04:22;2.44;78.91
72762;SHT30;60886;55.034;73.150;2023-03-01T19:07:29;2.39;79.15
72762;SHT30;60886;55.034;73.150;2023-03-01T19:10:31;2.37;78.75
72762;SHT30;60886;55.034;73.150;2023-03-01T19:13:34;2.37;78.67
72762;SHT30;60886;55.034;73.150;2023-03-01T19:16:42;2.37;78.63
72762;SHT30;60886;55.034;73.150;2023-03-01T19:19:43;2.34;78.73
72762;SHT30;60886;55.034;73.150;2023-03-01T19:22:54;2.36;78.19
72762;SHT30;60886;55.034;73.150;2023-03-01T19:26:03;2.39;78.16
72762;SHT30;60886;55.034;73.150;2023-03-01T19:29:04;2.40;78.45
72762;SHT30;60886;55.034;73.150;2023-03-01T19:32:09;2.40;77.87
72762;SHT30;60886;55.034;73.150;2023-03-01T19:35:20;2.33;77.89
72762;SHT30;60886;55.034;73.150;2023-03-01T19:38:28;2.36;77.81
72762;SHT30;60886;55.034;73.150;2023-03-01T19:41:30;2.34;77.69
72762;SHT30;60886;55.034;73.150;2023-03-01T19:44:31;2.32;77.68
72762;SHT30;60886;55.034;73.150;2023-03-01T19:47:33;2.33;77.86
72762;SHT30;60886;55.034;73.150;2023-03-01T19:50:45;2.33;78.10
72762;SHT30;60886;55.034;73.150;2023-03-01T19:53:49;2.33;78.16
72762;SHT30;60886;55.034;73.150;2023-03-01T19:56:51;2.33;78.07
72762;SHT30;60886;55.034;73.150;2023-03-01T20:00:02;2.36;77.75
72762;SHT30;60886;55.034;73.150;2023-03-01T20:03:13;2.34;78.00
72762;SHT30;60886;55.034;73.150;2023-03-01T20:06:18;2.36;77.87
72762;SHT30;60886;55.034;73.150;2023-03-01T20:09:23;2.39;78.14
72762;SHT30;60886;55.034;73.150;2023-03-01T20:12:29;2.37;78.25
72762;SHT30;60886;55.034;73.150;2023-03-01T20:15:31;2.36;78.68
72762;SHT30;60886;55.034;73.150;2023-03-01T20:18:37;2.30;79.30
72762;SHT30;60886;55.034;73.150;2023-03-01T20:21:48;2.26;79.94
72762;SHT30;60886;55.034;73.150;2023-03-01T20:24:50;2.26;80.32
72762;SHT30;60886;55.034;73.150;2023-03-01T20:27:51;2.26;80.54
72762;SHT30;60886;55.034;73.150;2023-03-01T20:30:53;2.13;81.61
72762;SHT30;60886;55.034;73.150;2023-03-01T20:33:56;2.10;82.10
72762;SHT30;60886;55.034;73.150;2023-03-01T20:36:57;2.10;81.80
72762;SHT30;60886;55.034;73.150;2023-03-01T20:40:07;2.03;82.29
72762;SHT30;60886;55.034;73.150;2023-03-01T20:43:09;1.89;83.58
72762;SHT30;60886;55.034;73.150;2023-03-01T20:46:16;1.96;83.89
72762;SHT30;60886;55.034;73.150;2023-03-01T20:49:17;1.95;83.48
72762;SHT30;60886;55.034;73.150;2023-03-01T20:52:25;1.99;83.71
72762;SHT30;60886;55.034;73.150;2023-03-01T20:55:26;2.01;83.66
72762;SHT30;60886;55.034;73.150;2023-03-01T20:58:27;1.95;83.93
72762;SHT30;60886;55.034;73.150;2023-03-01T21:01:43;2.03;83.89
72762;SHT30;60886;55.034;73.150;2023-03-01T21:04:54;2.01;83.34
72762;SHT30;60886;55.034;73.150;2023-03-01T21:08:06;2.08;82.66
72762;SHT30;60886;55.034;73.150;2023-03-01T21:11:08;2.09;82.36